sensor_id;sensor_type;location;lat;lon;timestamp;P1;durP1;ratioP1;P2;durP2;ratioP2
16288;SDS011;26089;43.538;5.250;2022-07-01T00:02:08;2.37;;;1.03;;
16288;SDS011;26089;43.538;5.250;2022-07-01T00:04:36;2.17;;;1.10;;
16288;SDS011;26089;43.538;5.250;2022-07-01T00:07:03;1.23;;;1.10;;
16288;SDS011;26089;43.538;5.250;2022-07-01T00:09:30;1.07;;;1.07;;
16288;SDS011;26089;43.538;5.250;2022-07-01T00:11:57;2.63;;;1.17;;
16288;SDS011;26089;43.538;5.250;2022-07-01T00:14:24;1.80;;;1.10;;
16288;SDS011;26089;43.538;5.250;2022-07-01T00:16:51;1.10;;;0.93;;
16288;SDS011;26089;43.538;5.250;2022-07-01T00:19:18;1.97;;;1.07;;
16288;SDS011;26089;43.538;5.250;2022-07-01T00:21:47;1.07;;;1.07;;
16288;SDS011;26089;43.538;5.250;2022-07-01T00:24:14;1.90;;;1.30;;
16288;SDS011;26089;43.538;5.250;2022-07-01T00:26:41;0.87;;;0.87;;
16288;SDS011;26089;43.538;5.250;2022-07-01T00:29:08;2.40;;;1.03;;
16288;SDS011;26089;43.538;5.250;2022-07-01T00:31:35;1.47;;;1.10;;
16288;SDS011;26089;43.538;5.250;2022-07-01T00:34:02;7.63;;;1.37;;
16288;SDS011;26089;43.538;5.250;2022-07-01T00:36:29;1.10;;;1.03;;
16288;SDS011;26089;43.538;5.250;2022-07-01T00:38:59;0.80;;;0.80;;
16288;SDS011;26089;43.538;5.250;2022-07-01T00:41:26;1.17;;;0.83;;
16288;SDS011;26089;43.538;5.250;2022-07-01T00:43:53;0.93;;;0.93;;
16288;SDS011;26089;43.538;5.250;2022-07-01T00:46:20;1.10;;;1.00;;
16288;SDS011;26089;43.538;5.250;2022-07-01T00:48:49;1.07;;;1.00;;
16288;SDS011;26089;43.538;5.250;2022-07-01T00:51:17;1.83;;;1.10;;
16288;SDS011;26089;43.538;5.250;2022-07-01T00:53:45;1.10;;;0.90;;
16288;SDS011;26089;43.538;5.250;2022-07-01T00:56:14;1.47;;;1.03;;
16288;SDS011;26089;43.538;5.250;2022-07-01T00:58:41;0.93;;;0.93;;
16288;SDS011;26089;43.538;5.250;2022-07-01T01:01:08;1.03;;;1.03;;
16288;SDS011;26089;43.538;5.250;2022-07-01T01:03:35;0.87;;;0.87;;
16288;SDS011;26089;43.538;5.250;2022-07-01T01:06:02;1.10;;;1.00;;
16288;SDS011;26089;43.538;5.250;2022-07-01T01:08:30;1.00;;;1.00;;
16288;SDS011;26089;43.538;5.250;2022-07-01T01:10:57;0.93;;;0.87;;
16288;SDS011;26089;43.538;5.250;2022-07-01T01:13:26;1.20;;;1.20;;
16288;SDS011;26089;43.538;5.250;2022-07-01T01:15:53;1.27;;;1.00;;
16288;SDS011;26089;43.538;5.250;2022-07-01T01:18:20;2.70;;;1.00;;
16288;SDS011;26089;43.538;5.250;2022-07-01T01:20:49;1.57;;;1.20;;
16288;SDS011;26089;43.538;5.250;2022-07-01T01:23:16;1.57;;;1.30;;
16288;SDS011;26089;43.538;5.250;2022-07-01T01:25:43;0.93;;;0.93;;
16288;SDS011;26089;43.538;5.250;2022-07-01T01:28:10;0.87;;;0.87;;
16288;SDS011;26089;43.538;5.250;2022-07-01T01:30:37;1.07;;;1.00;;
16288;SDS011;26089;43.538;5.250;2022-07-01T01:33:04;0.93;;;0.90;;
16288;SDS011;26089;43.538;5.250;2022-07-01T01:35:33;0.80;;;0.80;;
16288;SDS011;26089;43.538;5.250;2022-07-01T01:38:01;1.23;;;1.03;;
16288;SDS011;26089;43.538;5.250;2022-07-01T01:40:28;1.63;;;1.00;;
16288;SDS011;26089;43.538;5.250;2022-07-01T01:42:55;1.10;;;1.10;;
16288;SDS011;26089;43.538;5.250;2022-07-01T01:45:22;1.47;;;1.13;;
16288;SDS011;26089;43.538;5.250;2022-07-01T01:47:49;2.50;;;1.20;;
16288;SDS011;26089;43.538;5.250;2022-07-01T01:50:16;2.13;;;1.20;;
16288;SDS011;26089;43.538;5.250;2022-07-01T01:52:45;2.60;;;1.10;;
16288;SDS011;26089;43.538;5.250;2022-07-01T01:55:13;0.97;;;0.97;;
16288;SDS011;26089;43.538;5.250;2022-07-01T01:57:40;1.60;;;1.00;;
16288;SDS011;26089;43.538;5.250;2022-07-01T02:00:08;1.30;;;1.30;;
16288;SDS011;26089;43.538;5.250;2022-07-01T02:02:36;1.57;;;1.10;;
16288;SDS011;26089;43.538;5.250;2022-07-01T02:05:03;1.20;;;1.20;;
16288;SDS011;26089;43.538;5.250;2022-07-01T02:07:31;2.30;;;0.90;;
16288;SDS011;26089;43.538;5.250;2022-07-01T02:09:58;2.07;;;1.83;;
16288;SDS011;26089;43.538;5.250;2022-07-01T02:12:27;1.67;;;1.20;;
16288;SDS011;26089;43.538;5.250;2022-07-01T02:14:54;0.93;;;0.93;;
16288;SDS011;26089;43.538;5.250;2022-07-01T02:17:21;1.43;;;1.00;;
16288;SDS011;26089;43.538;5.250;2022-07-01T02:19:49;1.30;;;1.20;;
16288;SDS011;26089;43.538;5.250;2022-07-01T02:22:16;1.33;;;1.10;;
16288;SDS011;26089;43.538;5.250;2022-07-01T02:24:43;1.10;;;1.00;;
16288;SDS011;26089;43.538;5.250;2022-07-01T02:27:10;1.43;;;1.33;;
16288;SDS011;26089;43.538;5.250;2022-07-01T02:29:39;1.10;;;1.10;;
16288;SDS011;26089;43.538;5.250;2022-07-01T02:32:07;1.03;;;0.93;;
16288;SDS011;26089;43.538;5.250;2022-07-01T02:34:34;0.97;;;0.80;;
16288;SDS011;26089;43.538;5.250;2022-07-01T02:37:01;2.10;;;1.10;;
16288;SDS011;26089;43.538;5.250;2022-07-01T02:39:28;0.80;;;0.80;;
16288;SDS011;26089;43.538;5.250;2022-07-01T02:41:55;1.27;;;0.93;;
16288;SDS011;26089;43.538;5.250;2022-07-01T02:44:41;1.00;;;1.00;;
16288;SDS011;26089;43.538;5.250;2022-07-01T02:47:08;1.10;;;1.10;;
16288;SDS011;26089;43.538;5.250;2022-07-01T02:49:35;1.10;;;1.10;;
16288;SDS011;26089;43.538;5.250;2022-07-01T02:52:02;2.73;;;1.53;;
16288;SDS011;26089;43.538;5.250;2022-07-01T02:54:29;1.53;;;1.13;;
16288;SDS011;26089;43.538;5.250;2022-07-01T02:56:56;1.37;;;1.27;;
16288;SDS011;26089;43.538;5.250;2022-07-01T02:59:23;1.30;;;1.30;;
16288;SDS011;26089;43.538;5.250;2022-07-01T03:01:52;1.47;;;1.37;;
16288;SDS011;26089;43.538;5.250;2022-07-01T03:04:19;1.03;;;1.00;;
16288;SDS011;26089;43.538;5.250;2022-07-01T03:06:46;1.50;;;1.13;;
16288;SDS011;26089;43.538;5.250;2022-07-01T03:09:13;1.20;;;1.20;;
16288;SDS011;26089;43.538;5.250;2022-07-01T03:11:40;1.40;;;1.30;;
16288;SDS011;26089;43.538;5.250;2022-07-01T03:14:07;1.43;;;1.33;;
16288;SDS011;26089;43.538;5.250;2022-07-01T03:16:34;2.00;;;1.30;;
16288;SDS011;26089;43.538;5.250;2022-07-01T03:19:02;1.20;;;1.20;;
16288;SDS011;26089;43.538;5.250;2022-07-01T03:21:30;2.20;;;1.20;;
16288;SDS011;26089;43.538;5.250;2022-07-01T03:23:58;1.37;;;1.30;;
16288;SDS011;26089;43.538;5.250;2022-07-01T03:26:25;1.83;;;1.20;;
16288;SDS011;26089;43.538;5.250;2022-07-01T03:28:52;1.77;;;1.50;;
16288;SDS011;26089;43.538;5.250;2022-07-01T03:31:19;2.90;;;1.83;;
16288;SDS011;26089;43.538;5.250;2022-07-01T03:33:46;2.83;;;1.33;;
16288;SDS011;26089;43.538;5.250;2022-07-01T03:36:14;1.30;;;1.20;;
16288;SDS011;26089;43.538;5.250;2022-07-01T03:38:42;1.60;;;1.50;;
16288;SDS011;26089;43.538;5.250;2022-07-01T03:41:09;1.40;;;1.30;;
16288;SDS011;26089;43.538;5.250;2022-07-01T03:43:36;2.20;;;1.40;;
16288;SDS011;26089;43.538;5.250;2022-07-01T03:46:03;1.60;;;1.50;;
16288;SDS011;26089;43.538;5.250;2022-07-01T03:48:30;2.00;;;1.90;;
16288;SDS011;26089;43.538;5.250;2022-07-01T03:50:58;1.60;;;1.50;;
16288;SDS011;26089;43.538;5.250;2022-07-01T03:53:27;1.50;;;1.50;;
16288;SDS011;26089;43.538;5.250;2022-07-01T03:56:11;1.43;;;1.37;;
16288;SDS011;26089;43.538;5.250;2022-07-01T03:58:38;1.43;;;1.27;;
16288;SDS011;26089;43.538;5.250;2022-07-01T04:01:05;1.40;;;1.30;;
16288;SDS011;26089;43.538;5.250;2022-07-01T04:03:32;1.10;;;1.00;;
16288;SDS011;26089;43.538;5.250;2022-07-01T04:05:59;1.17;;;1.10;;
16288;SDS011;26089;43.538;5.250;2022-07-01T04:08:28;1.33;;;1.10;;
16288;SDS011;26089;43.538;5.250;2022-07-01T04:10:55;1.43;;;0.90;;
16288;SDS011;26089;43.538;5.250;2022-07-01T04:13:22;1.23;;;0.90;;
16288;SDS011;26089;43.538;5.250;2022-07-01T04:15:50;0.90;;;0.90;;
16288;SDS011;26089;43.538;5.250;2022-07-01T04:18:17;1.27;;;0.87;;
16288;SDS011;26089;43.538;5.250;2022-07-01T04:20:45;1.33;;;1.07;;
16288;SDS011;26089;43.538;5.250;2022-07-01T04:23:33;1.10;;;1.00;;
16288;SDS011;26089;43.538;5.250;2022-07-01T04:25:59;1.73;;;0.73;;
16288;SDS011;26089;43.538;5.250;2022-07-01T04:28:27;1.57;;;1.10;;
16288;SDS011;26089;43.538;5.250;2022-07-01T04:30:54;1.23;;;1.03;;
16288;SDS011;26089;43.538;5.250;2022-07-01T04:33:21;0.90;;;0.90;;
16288;SDS011;26089;43.538;5.250;2022-07-01T04:35:47;2.17;;;1.00;;
16288;SDS011;26089;43.538;5.250;2022-07-01T04:38:15;0.80;;;0.80;;
16288;SDS011;26089;43.538;5.250;2022-07-01T04:40:43;1.00;;;1.00;;
16288;SDS011;26089;43.538;5.250;2022-07-01T04:43:30;1.23;;;0.90;;
16288;SDS011;26089;43.538;5.250;2022-07-01T04:45:56;0.90;;;0.90;;
16288;SDS011;26089;43.538;5.250;2022-07-01T04:48:23;2.43;;;0.90;;
16288;SDS011;26089;43.538;5.250;2022-07-01T04:50:50;1.27;;;1.20;;
16288;SDS011;26089;43.538;5.250;2022-07-01T04:53:17;1.00;;;1.00;;
16288;SDS011;26089;43.538;5.250;2022-07-01T04:55:46;1.37;;;1.00;;
16288;SDS011;26089;43.538;5.250;2022-07-01T04:58:13;1.53;;;1.20;;
16288;SDS011;26089;43.538;5.250;2022-07-01T05:00:40;1.23;;;1.20;;
16288;SDS011;26089;43.538;5.250;2022-07-01T05:03:08;1.30;;;1.20;;
16288;SDS011;26089;43.538;5.250;2022-07-01T05:05:35;1.00;;;1.00;;
16288;SDS011;26089;43.538;5.250;2022-07-01T05:08:02;0.90;;;0.90;;
16288;SDS011;26089;43.538;5.250;2022-07-01T05:10:29;1.10;;;1.10;;
16288;SDS011;26089;43.538;5.250;2022-07-01T05:12:57;0.97;;;0.80;;
16288;SDS011;26089;43.538;5.250;2022-07-01T05:15:25;0.97;;;0.93;;
16288;SDS011;26089;43.538;5.250;2022-07-01T05:17:52;1.47;;;0.90;;
16288;SDS011;26089;43.538;5.250;2022-07-01T05:20:36;0.80;;;0.80;;
16288;SDS011;26089;43.538;5.250;2022-07-01T05:23:20;0.83;;;0.80;;
16288;SDS011;26089;43.538;5.250;2022-07-01T05:25:47;0.60;;;0.60;;
16288;SDS011;26089;43.538;5.250;2022-07-01T05:28:16;0.97;;;0.70;;
16288;SDS011;26089;43.538;5.250;2022-07-01T05:30:43;3.33;;;1.10;;
16288;SDS011;26089;43.538;5.250;2022-07-01T05:33:10;0.90;;;0.90;;
16288;SDS011;26089;43.538;5.250;2022-07-01T05:35:37;1.00;;;1.00;;
16288;SDS011;26089;43.538;5.250;2022-07-01T05:38:04;1.60;;;0.90;;
16288;SDS011;26089;43.538;5.250;2022-07-01T05:40:31;1.00;;;1.00;;
16288;SDS011;26089;43.538;5.250;2022-07-01T05:42:58;0.80;;;0.80;;
16288;SDS011;26089;43.538;5.250;2022-07-01T05:45:26;1.07;;;0.97;;
16288;SDS011;26089;43.538;5.250;2022-07-01T05:47:53;1.07;;;0.80;;
16288;SDS011;26089;43.538;5.250;2022-07-01T05:50:21;2.07;;;0.90;;
16288;SDS011;26089;43.538;5.250;2022-07-01T05:52:48;1.33;;;0.70;;
16288;SDS011;26089;43.538;5.250;2022-07-01T05:55:16;1.03;;;0.93;;
16288;SDS011;26089;43.538;5.250;2022-07-01T05:57:43;0.80;;;0.80;;
16288;SDS011;26089;43.538;5.250;2022-07-01T06:00:10;1.27;;;0.70;;
16288;SDS011;26089;43.538;5.250;2022-07-01T06:02:39;3.97;;;1.40;;
16288;SDS011;26089;43.538;5.250;2022-07-01T06:05:07;4.47;;;1.33;;
16288;SDS011;26089;43.538;5.250;2022-07-01T06:07:34;1.10;;;1.00;;
16288;SDS011;26089;43.538;5.250;2022-07-01T06:10:01;1.93;;;1.27;;
16288;SDS011;26089;43.538;5.250;2022-07-01T06:12:28;0.80;;;0.80;;
16288;SDS011;26089;43.538;5.250;2022-07-01T06:14:55;1.20;;;1.10;;
16288;SDS011;26089;43.538;5.250;2022-07-01T06:17:22;3.13;;;1.20;;
16288;SDS011;26089;43.538;5.250;2022-07-01T06:19:50;1.17;;;1.13;;
16288;SDS011;26089;43.538;5.250;2022-07-01T06:22:18;1.17;;;0.97;;
16288;SDS011;26089;43.538;5.250;2022-07-01T06:24:46;1.00;;;1.00;;
16288;SDS011;26089;43.538;5.250;2022-07-01T06:27:13;2.87;;;0.90;;
16288;SDS011;26089;43.538;5.250;2022-07-01T06:29:40;2.93;;;1.30;;
16288;SDS011;26089;43.538;5.250;2022-07-01T06:32:07;1.67;;;1.20;;
16288;SDS011;26089;43.538;5.250;2022-07-01T06:34:34;1.40;;;1.10;;
16288;SDS011;26089;43.538;5.250;2022-07-01T06:37:03;2.57;;;0.80;;
16288;SDS011;26089;43.538;5.250;2022-07-01T06:39:30;1.17;;;1.10;;
16288;SDS011;26089;43.538;5.250;2022-07-01T06:41:57;2.20;;;0.90;;
16288;SDS011;26089;43.538;5.250;2022-07-01T06:44:24;0.90;;;0.90;;
16288;SDS011;26089;43.538;5.250;2022-07-01T06:46:51;2.60;;;1.10;;
16288;SDS011;26089;43.538;5.250;2022-07-01T06:49:18;1.80;;;1.00;;
16288;SDS011;26089;43.538;5.250;2022-07-01T06:51:45;1.87;;;1.10;;
16288;SDS011;26089;43.538;5.250;2022-07-01T06:54:14;2.17;;;1.10;;
16288;SDS011;26089;43.538;5.250;2022-07-01T06:56:42;0.90;;;0.90;;
16288;SDS011;26089;43.538;5.250;2022-07-01T06:59:09;2.10;;;0.90;;
16288;SDS011;26089;43.538;5.250;2022-07-01T07:01:36;1.23;;;0.97;;
16288;SDS011;26089;43.538;5.250;2022-07-01T07:04:04;1.57;;;1.17;;
16288;SDS011;26089;43.538;5.250;2022-07-01T07:06:31;2.07;;;0.90;;
16288;SDS011;26089;43.538;5.250;2022-07-01T07:08:58;2.13;;;0.90;;
16288;SDS011;26089;43.538;5.250;2022-07-01T07:11:26;0.97;;;0.70;;
16288;SDS011;26089;43.538;5.250;2022-07-01T07:13:53;1.73;;;1.00;;
16288;SDS011;26089;43.538;5.250;2022-07-01T07:16:20;3.50;;;1.00;;
16288;SDS011;26089;43.538;5.250;2022-07-01T07:18:48;3.20;;;1.17;;
16288;SDS011;26089;43.538;5.250;2022-07-01T07:21:16;3.93;;;1.07;;
16288;SDS011;26089;43.538;5.250;2022-07-01T07:23:43;1.40;;;1.13;;
16288;SDS011;26089;43.538;5.250;2022-07-01T07:26:10;0.90;;;0.90;;
16288;SDS011;26089;43.538;5.250;2022-07-01T07:28:39;1.83;;;1.20;;
16288;SDS011;26089;43.538;5.250;2022-07-01T07:31:06;1.77;;;1.10;;
16288;SDS011;26089;43.538;5.250;2022-07-01T07:33:33;1.60;;;1.37;;
16288;SDS011;26089;43.538;5.250;2022-07-01T07:36:00;2.30;;;1.10;;
16288;SDS011;26089;43.538;5.250;2022-07-01T07:38:27;1.27;;;1.20;;
16288;SDS011;26089;43.538;5.250;2022-07-01T07:40:54;2.30;;;1.20;;
16288;SDS011;26089;43.538;5.250;2022-07-01T07:43:21;2.90;;;1.20;;
16288;SDS011;26089;43.538;5.250;2022-07-01T07:45:50;1.53;;;1.07;;
16288;SDS011;26089;43.538;5.250;2022-07-01T07:48:17;1.20;;;1.10;;
16288;SDS011;26089;43.538;5.250;2022-07-01T07:50:44;3.73;;;1.23;;
16288;SDS011;26089;43.538;5.250;2022-07-01T07:53:12;2.27;;;1.37;;
16288;SDS011;26089;43.538;5.250;2022-07-01T07:55:39;3.27;;;1.40;;
16288;SDS011;26089;43.538;5.250;2022-07-01T07:58:06;1.77;;;1.20;;
16288;SDS011;26089;43.538;5.250;2022-07-01T08:00:33;1.23;;;1.13;;
16288;SDS011;26089;43.538;5.250;2022-07-01T08:03:02;2.93;;;1.20;;
16288;SDS011;26089;43.538;5.250;2022-07-01T08:05:29;2.17;;;1.03;;
16288;SDS011;26089;43.538;5.250;2022-07-01T08:07:56;1.27;;;1.00;;
16288;SDS011;26089;43.538;5.250;2022-07-01T08:10:23;3.87;;;1.07;;
16288;SDS011;26089;43.538;5.250;2022-07-01T08:12:50;3.17;;;1.10;;
16288;SDS011;26089;43.538;5.250;2022-07-01T08:15:17;3.00;;;1.17;;
16288;SDS011;26089;43.538;5.250;2022-07-01T08:17:44;3.03;;;1.70;;
16288;SDS011;26089;43.538;5.250;2022-07-01T08:20:14;2.53;;;0.97;;
16288;SDS011;26089;43.538;5.250;2022-07-01T08:22:42;2.50;;;0.93;;
16288;SDS011;26089;43.538;5.250;2022-07-01T08:25:09;1.43;;;0.87;;
16288;SDS011;26089;43.538;5.250;2022-07-01T08:27:36;0.90;;;0.90;;
16288;SDS011;26089;43.538;5.250;2022-07-01T08:30:03;2.37;;;1.10;;
16288;SDS011;26089;43.538;5.250;2022-07-01T08:32:31;1.63;;;0.97;;
16288;SDS011;26089;43.538;5.250;2022-07-01T08:34:58;1.27;;;0.90;;
16288;SDS011;26089;43.538;5.250;2022-07-01T08:37:27;1.02;;;0.93;;
16288;SDS011;26089;43.538;5.250;2022-07-01T08:39:54;1.60;;;0.90;;
16288;SDS011;26089;43.538;5.250;2022-07-01T08:42:21;6.10;;;1.90;;
16288;SDS011;26089;43.538;5.250;2022-07-01T08:44:48;1.90;;;0.60;;
16288;SDS011;26089;43.538;5.250;2022-07-01T08:47:15;1.08;;;0.98;;
16288;SDS011;26089;43.538;5.250;2022-07-01T08:49:42;3.15;;;1.45;;
16288;SDS011;26089;43.538;5.250;2022-07-01T08:52:09;2.85;;;1.00;;
16288;SDS011;26089;43.538;5.250;2022-07-01T08:54:38;3.67;;;1.07;;
16288;SDS011;26089;43.538;5.250;2022-07-01T08:57:06;2.72;;;0.90;;
16288;SDS011;26089;43.538;5.250;2022-07-01T08:59:33;3.80;;;1.00;;
16288;SDS011;26089;43.538;5.250;2022-07-01T09:02:01;10.45;;;2.10;;
16288;SDS011;26089;43.538;5.250;2022-07-01T09:04:30;4.82;;;0.80;;
16288;SDS011;26089;43.538;5.250;2022-07-01T09:07:01;3.63;;;1.00;;
16288;SDS011;26089;43.538;5.250;2022-07-01T09:09:32;2.08;;;0.82;;
16288;SDS011;26089;43.538;5.250;2022-07-01T09:12:02;4.70;;;1.10;;
16288;SDS011;26089;43.538;5.250;2022-07-01T09:14:31;5.15;;;1.17;;
16288;SDS011;26089;43.538;5.250;2022-07-01T09:17:00;2.97;;;0.82;;
16288;SDS011;26089;43.538;5.250;2022-07-01T09:19:30;1.85;;;0.77;;
16288;SDS011;26089;43.538;5.250;2022-07-01T09:21:59;1.08;;;0.90;;
16288;SDS011;26089;43.538;5.250;2022-07-01T09:24:28;1.50;;;0.68;;
16288;SDS011;26089;43.538;5.250;2022-07-01T09:26:57;1.02;;;0.70;;
16288;SDS011;26089;43.538;5.250;2022-07-01T09:29:27;3.15;;;0.70;;
16288;SDS011;26089;43.538;5.250;2022-07-01T09:31:56;2.90;;;0.90;;
16288;SDS011;26089;43.538;5.250;2022-07-01T09:34:23;2.05;;;0.95;;
16288;SDS011;26089;43.538;5.250;2022-07-01T09:36:51;1.83;;;0.98;;
16288;SDS011;26089;43.538;5.250;2022-07-01T09:39:20;5.85;;;1.10;;
16288;SDS011;26089;43.538;5.250;2022-07-01T09:41:47;1.55;;;0.80;;
16288;SDS011;26089;43.538;5.250;2022-07-01T09:44:14;2.75;;;0.80;;
16288;SDS011;26089;43.538;5.250;2022-07-01T09:49:26;1.77;;;0.90;;
16288;SDS011;26089;43.538;5.250;2022-07-01T09:51:54;1.27;;;0.80;;
16288;SDS011;26089;43.538;5.250;2022-07-01T09:54:21;1.75;;;0.80;;
16288;SDS011;26089;43.538;5.250;2022-07-01T09:56:48;3.10;;;0.70;;
16288;SDS011;26089;43.538;5.250;2022-07-01T09:59:15;2.20;;;0.70;;
16288;SDS011;26089;43.538;5.250;2022-07-01T10:01:42;5.43;;;1.02;;
16288;SDS011;26089;43.538;5.250;2022-07-01T10:04:12;3.97;;;1.00;;
16288;SDS011;26089;43.538;5.250;2022-07-01T10:12:33;1.25;;;0.90;;
16288;SDS011;26089;43.538;5.250;2022-07-01T10:15:02;1.15;;;0.65;;
16288;SDS011;26089;43.538;5.250;2022-07-01T10:17:33;1.27;;;0.55;;
16288;SDS011;26089;43.538;5.250;2022-07-01T10:20:08;1.80;;;0.70;;
16288;SDS011;26089;43.538;5.250;2022-07-01T10:22:36;1.25;;;0.60;;
16288;SDS011;26089;43.538;5.250;2022-07-01T10:28:12;1.50;;;0.70;;
16288;SDS011;26089;43.538;5.250;2022-07-01T10:30:48;1.08;;;0.50;;
16288;SDS011;26089;43.538;5.250;2022-07-01T10:33:26;1.52;;;0.80;;
16288;SDS011;26089;43.538;5.250;2022-07-01T10:35:55;1.10;;;1.00;;
16288;SDS011;26089;43.538;5.250;2022-07-01T10:38:29;2.90;;;0.60;;
16288;SDS011;26089;43.538;5.250;2022-07-01T10:40:56;2.15;;;0.80;;
16288;SDS011;26089;43.538;5.250;2022-07-01T10:43:34;1.73;;;0.60;;
16288;SDS011;26089;43.538;5.250;2022-07-01T10:46:02;0.60;;;0.47;;
16288;SDS011;26089;43.538;5.250;2022-07-01T10:48:30;1.70;;;0.52;;
16288;SDS011;26089;43.538;5.250;2022-07-01T10:51:00;1.00;;;0.77;;
16288;SDS011;26089;43.538;5.250;2022-07-01T10:53:30;0.95;;;0.60;;
16288;SDS011;26089;43.538;5.250;2022-07-01T10:56:14;0.60;;;0.60;;
16288;SDS011;26089;43.538;5.250;2022-07-01T10:58:43;0.75;;;0.68;;
16288;SDS011;26089;43.538;5.250;2022-07-01T11:01:10;1.55;;;0.70;;
16288;SDS011;26089;43.538;5.250;2022-07-01T11:03:37;1.33;;;0.82;;
16288;SDS011;26089;43.538;5.250;2022-07-01T11:06:06;3.10;;;0.98;;
16288;SDS011;26089;43.538;5.250;2022-07-01T11:08:34;1.95;;;0.73;;
16288;SDS011;26089;43.538;5.250;2022-07-01T11:11:01;2.75;;;0.68;;
16288;SDS011;26089;43.538;5.250;2022-07-01T11:13:30;1.58;;;0.75;;
16288;SDS011;26089;43.538;5.250;2022-07-01T11:15:58;0.98;;;0.70;;
16288;SDS011;26089;43.538;5.250;2022-07-01T11:18:26;1.20;;;0.90;;
16288;SDS011;26089;43.538;5.250;2022-07-01T11:21:01;2.15;;;0.63;;
16288;SDS011;26089;43.538;5.250;2022-07-01T11:23:31;1.98;;;0.60;;
16288;SDS011;26089;43.538;5.250;2022-07-01T11:25:58;1.27;;;0.60;;
16288;SDS011;26089;43.538;5.250;2022-07-01T11:28:25;1.13;;;0.50;;
16288;SDS011;26089;43.538;5.250;2022-07-01T11:30:57;1.90;;;1.02;;
16288;SDS011;26089;43.538;5.250;2022-07-01T11:33:26;1.23;;;0.43;;
16288;SDS011;26089;43.538;5.250;2022-07-01T11:35:53;2.13;;;0.73;;
16288;SDS011;26089;43.538;5.250;2022-07-01T11:38:38;1.25;;;0.68;;
16288;SDS011;26089;43.538;5.250;2022-07-01T11:41:28;1.20;;;0.60;;
16288;SDS011;26089;43.538;5.250;2022-07-01T11:43:55;0.77;;;0.70;;
16288;SDS011;26089;43.538;5.250;2022-07-01T11:46:22;0.85;;;0.60;;
16288;SDS011;26089;43.538;5.250;2022-07-01T11:48:50;2.10;;;0.57;;
16288;SDS011;26089;43.538;5.250;2022-07-01T11:51:18;0.70;;;0.70;;
16288;SDS011;26089;43.538;5.250;2022-07-01T11:53:48;1.13;;;0.70;;
16288;SDS011;26089;43.538;5.250;2022-07-01T11:56:17;1.33;;;0.80;;
16288;SDS011;26089;43.538;5.250;2022-07-01T11:58:55;0.65;;;0.65;;
16288;SDS011;26089;43.538;5.250;2022-07-01T12:01:26;0.95;;;0.60;;
16288;SDS011;26089;43.538;5.250;2022-07-01T12:03:55;2.05;;;0.80;;
16288;SDS011;26089;43.538;5.250;2022-07-01T12:06:24;1.27;;;0.90;;
16288;SDS011;26089;43.538;5.250;2022-07-01T12:08:53;2.70;;;0.70;;
16288;SDS011;26089;43.538;5.250;2022-07-01T12:11:22;0.50;;;0.45;;
16288;SDS011;26089;43.538;5.250;2022-07-01T12:13:50;0.95;;;0.60;;
16288;SDS011;26089;43.538;5.250;2022-07-01T12:16:18;1.08;;;0.63;;
16288;SDS011;26089;43.538;5.250;2022-07-01T12:18:56;0.93;;;0.80;;
16288;SDS011;26089;43.538;5.250;2022-07-01T12:21:24;1.17;;;0.60;;
16288;SDS011;26089;43.538;5.250;2022-07-01T12:24:08;2.15;;;0.80;;
16288;SDS011;26089;43.538;5.250;2022-07-01T12:26:45;2.80;;;1.10;;
16288;SDS011;26089;43.538;5.250;2022-07-01T12:29:29;1.15;;;0.60;;
16288;SDS011;26089;43.538;5.250;2022-07-01T12:31:58;0.60;;;0.60;;
16288;SDS011;26089;43.538;5.250;2022-07-01T12:34:40;2.13;;;1.00;;
16288;SDS011;26089;43.538;5.250;2022-07-01T12:37:09;1.85;;;0.80;;
16288;SDS011;26089;43.538;5.250;2022-07-01T12:39:43;1.17;;;0.90;;
16288;SDS011;26089;43.538;5.250;2022-07-01T12:42:20;0.73;;;0.73;;
16288;SDS011;26089;43.538;5.250;2022-07-01T12:44:49;1.13;;;1.02;;
16288;SDS011;26089;43.538;5.250;2022-07-01T12:47:17;3.22;;;0.63;;
16288;SDS011;26089;43.538;5.250;2022-07-01T12:49:45;1.23;;;0.73;;
16288;SDS011;26089;43.538;5.250;2022-07-01T12:52:25;1.98;;;0.75;;
16288;SDS011;26089;43.538;5.250;2022-07-01T12:54:54;1.30;;;0.77;;
16288;SDS011;26089;43.538;5.250;2022-07-01T12:57:29;4.40;;;0.88;;
16288;SDS011;26089;43.538;5.250;2022-07-01T12:59:57;0.90;;;0.80;;
16288;SDS011;26089;43.538;5.250;2022-07-01T13:02:24;0.70;;;0.70;;
16288;SDS011;26089;43.538;5.250;2022-07-01T13:04:51;0.70;;;0.70;;
16288;SDS011;26089;43.538;5.250;2022-07-01T13:07:18;2.67;;;0.88;;
16288;SDS011;26089;43.538;5.250;2022-07-01T13:09:45;1.65;;;0.85;;
16288;SDS011;26089;43.538;5.250;2022-07-01T13:12:14;0.70;;;0.60;;
16288;SDS011;26089;43.538;5.250;2022-07-01T13:14:41;0.93;;;0.82;;
16288;SDS011;26089;43.538;5.250;2022-07-01T13:17:09;2.42;;;0.65;;
16288;SDS011;26089;43.538;5.250;2022-07-01T13:19:36;0.98;;;0.50;;
16288;SDS011;26089;43.538;5.250;2022-07-01T13:22:03;0.80;;;0.80;;
16288;SDS011;26089;43.538;5.250;2022-07-01T13:24:30;1.20;;;0.60;;
16288;SDS011;26089;43.538;5.250;2022-07-01T13:26:57;0.73;;;0.70;;
16288;SDS011;26089;43.538;5.250;2022-07-01T13:29:26;2.17;;;0.95;;
16288;SDS011;26089;43.538;5.250;2022-07-01T13:31:53;2.20;;;0.98;;
16288;SDS011;26089;43.538;5.250;2022-07-01T13:34:20;1.88;;;0.80;;
16288;SDS011;26089;43.538;5.250;2022-07-01T13:36:47;0.93;;;0.77;;
16288;SDS011;26089;43.538;5.250;2022-07-01T13:39:14;1.05;;;0.65;;
16288;SDS011;26089;43.538;5.250;2022-07-01T13:41:41;0.98;;;0.60;;
16288;SDS011;26089;43.538;5.250;2022-07-01T13:44:08;1.00;;;0.60;;
16288;SDS011;26089;43.538;5.250;2022-07-01T13:46:36;1.40;;;0.60;;
16288;SDS011;26089;43.538;5.250;2022-07-01T13:49:03;1.80;;;0.73;;
16288;SDS011;26089;43.538;5.250;2022-07-01T13:51:30;1.65;;;1.10;;
16288;SDS011;26089;43.538;5.250;2022-07-01T13:53:57;1.77;;;0.70;;
16288;SDS011;26089;43.538;5.250;2022-07-01T13:56:24;0.80;;;0.80;;
16288;SDS011;26089;43.538;5.250;2022-07-01T13:58:53;4.13;;;0.90;;
16288;SDS011;26089;43.538;5.250;2022-07-01T14:01:21;2.20;;;0.63;;
16288;SDS011;26089;43.538;5.250;2022-07-01T14:03:50;0.80;;;0.80;;
16288;SDS011;26089;43.538;5.250;2022-07-01T14:06:18;2.08;;;0.80;;
16288;SDS011;26089;43.538;5.250;2022-07-01T14:08:46;2.35;;;0.85;;
16288;SDS011;26089;43.538;5.250;2022-07-01T14:11:13;2.17;;;0.70;;
16288;SDS011;26089;43.538;5.250;2022-07-01T14:13:40;1.17;;;0.75;;
16288;SDS011;26089;43.538;5.250;2022-07-01T14:16:07;2.53;;;1.00;;
16288;SDS011;26089;43.538;5.250;2022-07-01T14:18:35;2.83;;;0.60;;
16288;SDS011;26089;43.538;5.250;2022-07-01T14:21:04;1.10;;;0.80;;
16288;SDS011;26089;43.538;5.250;2022-07-01T14:23:32;2.85;;;0.90;;
16288;SDS011;26089;43.538;5.250;2022-07-01T14:25:59;3.20;;;1.10;;
16288;SDS011;26089;43.538;5.250;2022-07-01T14:28:26;2.15;;;0.98;;
16288;SDS011;26089;43.538;5.250;2022-07-01T14:30:53;3.30;;;1.10;;
16288;SDS011;26089;43.538;5.250;2022-07-01T14:33:21;0.98;;;0.85;;
16288;SDS011;26089;43.538;5.250;2022-07-01T14:35:48;3.00;;;0.90;;
16288;SDS011;26089;43.538;5.250;2022-07-01T14:38:16;2.53;;;1.23;;
16288;SDS011;26089;43.538;5.250;2022-07-01T14:40:44;2.70;;;0.95;;
16288;SDS011;26089;43.538;5.250;2022-07-01T14:43:11;1.38;;;1.00;;
16288;SDS011;26089;43.538;5.250;2022-07-01T14:45:38;1.30;;;1.20;;
16288;SDS011;26089;43.538;5.250;2022-07-01T14:48:05;2.33;;;1.75;;
16288;SDS011;26089;43.538;5.250;2022-07-01T14:50:33;1.60;;;1.50;;
16288;SDS011;26089;43.538;5.250;2022-07-01T14:53:01;2.47;;;2.20;;
16288;SDS011;26089;43.538;5.250;2022-07-01T14:55:31;3.10;;;2.70;;
16288;SDS011;26089;43.538;5.250;2022-07-01T14:57:58;3.83;;;2.42;;
16288;SDS011;26089;43.538;5.250;2022-07-01T15:00:25;2.05;;;1.95;;
16288;SDS011;26089;43.538;5.250;2022-07-01T15:02:54;1.60;;;1.50;;
16288;SDS011;26089;43.538;5.250;2022-07-01T15:05:21;2.92;;;2.05;;
16288;SDS011;26089;43.538;5.250;2022-07-01T15:07:48;3.25;;;2.92;;